Airfield :
LOGIN :

Register | Disclaimer

   EN    FR    IT 

 










Legend :    VFR   Marginal VFR   IFR   Intensive IFR   Very Intensive IFR
Visi :
Ceiling :
>= 8 km
>= 3000ft
5 to 8 km
1000 to 3000 ft
1500m to 5 km
500 to 1000 ft
800 to 1500m
200 to 500 ft
< 800m
< 200 ft
Symbols :   Thunderstorms  Fog  Heavy snow  Heavy precipitations  Wind > 20 kt
SIGMETs :     Misc.  Thunderstorms  Icing  Turbulence  Mountain Waves  Volcanic Ashes






- Airport Elevation : 2625 ft
- IATA code : LEU


LESU - Aeròdrom dels Pirineus-Alt Urgell

CURRENT METAR :
  • 130950Z VRB02KT 2500 BR BCFG SCT002 BKN055 03/03 Q1002

EXPIRED METARs :
  • 130930Z 09003KT 020V140 9999 1300 -RA BCFG FEW001 SCT055 03/03 Q1002
  • 130900Z VRB02KT 9000 0300 -RA BCFG SCT001 BKN062 02/02 Q1001
  • 130832Z VRB02KT 0100 R03/0500N -RA FG SCT000 BKN062 02/02 Q1001
  • 130800Z VRB01KT 9999 1700 -RA BCFG SCT001 BKN065 02/02 Q1001

TAF AMD TAF LESU
Valid from the 13 at 09:00 until the 14 at 09:00 UTC


130900Z 1309/1409 VRB04KT 9999 SCT060 TX12/1313Z TNM02/1406Z
TEMPO 1309/1312 0300 RA BCFG VV001
TEMPO 1312/1320 30015G25KT
BECMG 1320/1322 VRB05KT



MET'MAP, your aeronautical weather chart ! - Copyright ORBIFLY December 2007 - Disclaimer

ORBIFLY MET'MAP TEAM :

Programming & Development : Alexandra Zaïnal
Concept & original design : Baudouin d'Aumeries
Assistance for programming : Marc-Olivier Méhu
Technical & hardware support : Manuel Goepfert

Contact : metmap@orbifly.com




SOURCES & CREDITS :

   NOAA